sensor_id;sensor_type;location;lat;lon;timestamp;pressure;altitude;pressure_sealevel;temperature;humidity
62710;BME280;48770;51.624;5.886;2023-03-14T00:00:37;98810.31;;;21.15;37.90
62710;BME280;48770;51.624;5.886;2023-03-14T00:03:02;98802.75;;;21.15;38.02
62710;BME280;48770;51.624;5.886;2023-03-14T00:05:27;98803.94;;;21.14;38.23
62710;BME280;48770;51.624;5.886;2023-03-14T00:07:53;98794.81;;;21.14;38.19
62710;BME280;48770;51.624;5.886;2023-03-14T00:10:18;98806.72;;;21.14;38.33
62710;BME280;48770;51.624;5.886;2023-03-14T00:12:44;98804.75;;;21.15;38.23
62710;BME280;48770;51.624;5.886;2023-03-14T00:15:10;98805.94;;;21.14;38.17
62710;BME280;48770;51.624;5.886;2023-03-14T00:17:37;98796.41;;;21.15;38.16
62710;BME280;48770;51.624;5.886;2023-03-14T00:20:05;98799.19;;;21.15;38.39
62710;BME280;48770;51.624;5.886;2023-03-14T00:22:37;98795.63;;;21.14;38.22
62710;BME280;48770;51.624;5.886;2023-03-14T00:25:04;98792.84;;;21.14;37.87
62710;BME280;48770;51.624;5.886;2023-03-14T00:27:30;98788.47;;;21.13;38.24
62710;BME280;48770;51.624;5.886;2023-03-14T00:29:56;98796.03;;;21.13;38.06
62710;BME280;48770;51.624;5.886;2023-03-14T00:32:21;98799.19;;;21.11;37.95
62710;BME280;48770;51.624;5.886;2023-03-14T00:34:47;98790.88;;;21.11;38.10
62710;BME280;48770;51.624;5.886;2023-03-14T00:37:12;98805.56;;;21.12;38.08
62710;BME280;48770;51.624;5.886;2023-03-14T00:39:37;98806.75;;;21.11;38.07
62710;BME280;48770;51.624;5.886;2023-03-14T00:42:03;98803.19;;;21.10;38.05
62710;BME280;48770;51.624;5.886;2023-03-14T00:44:28;98794.84;;;21.10;38.00
62710;BME280;48770;51.624;5.886;2023-03-14T00:46:54;98809.94;;;21.09;38.02
62710;BME280;48770;51.624;5.886;2023-03-14T00:49:19;98818.28;;;21.09;37.99
62710;BME280;48770;51.624;5.886;2023-03-14T00:51:45;98817.06;;;21.10;38.14
62710;BME280;48770;51.624;5.886;2023-03-14T00:54:10;98823.81;;;21.09;38.33
62710;BME280;48770;51.624;5.886;2023-03-14T00:56:36;98822.25;;;21.08;37.93
62710;BME280;48770;51.624;5.886;2023-03-14T00:59:01;98832.97;;;21.10;38.00
62710;BME280;48770;51.624;5.886;2023-03-14T01:01:26;98838.91;;;21.08;38.12
62710;BME280;48770;51.624;5.886;2023-03-14T01:03:53;98838.09;;;21.08;38.13
62710;BME280;48770;51.624;5.886;2023-03-14T01:06:25;98845.25;;;21.09;38.08
62710;BME280;48770;51.624;5.886;2023-03-14T01:08:51;98843.66;;;21.08;38.31
62710;BME280;48770;51.624;5.886;2023-03-14T01:11:18;98840.88;;;21.08;38.03
62710;BME280;48770;51.624;5.886;2023-03-14T01:13:44;98831.75;;;21.07;37.80
62710;BME280;48770;51.624;5.886;2023-03-14T01:16:11;98837.31;;;21.07;38.07
62710;BME280;48770;51.624;5.886;2023-03-14T01:18:37;98830.94;;;21.07;37.96
62710;BME280;48770;51.624;5.886;2023-03-14T01:21:10;98829.38;;;21.06;38.08
62710;BME280;48770;51.624;5.886;2023-03-14T01:23:35;98834.94;;;21.06;38.09
62710;BME280;48770;51.624;5.886;2023-03-14T01:26:01;98825.81;;;21.05;38.16
62710;BME280;48770;51.624;5.886;2023-03-14T01:28:26;98823.03;;;21.05;37.97
62710;BME280;48770;51.624;5.886;2023-03-14T01:30:51;98824.22;;;21.04;37.85
62710;BME280;48770;51.624;5.886;2023-03-14T01:33:17;98822.63;;;21.03;38.09
62710;BME280;48770;51.624;5.886;2023-03-14T01:35:42;98817.06;;;21.03;38.12
62710;BME280;48770;51.624;5.886;2023-03-14T01:38:07;98817.06;;;21.03;38.05
62710;BME280;48770;51.624;5.886;2023-03-14T01:40:33;98807.16;;;21.02;38.24
62710;BME280;48770;51.624;5.886;2023-03-14T01:43:06;98807.16;;;21.02;37.96
62710;BME280;48770;51.624;5.886;2023-03-14T01:46:25;98795.28;;;20.94;37.94
62710;BME280;48770;51.624;5.886;2023-03-14T01:51:39;98790.91;;;20.97;37.81
62710;BME280;48770;51.624;5.886;2023-03-14T01:59:40;98780.19;;;20.96;37.99
62710;BME280;48770;51.624;5.886;2023-03-14T02:02:09;98775.44;;;20.96;37.83
62710;BME280;48770;51.624;5.886;2023-03-14T02:04:36;98771.06;;;20.95;37.89
62710;BME280;48770;51.624;5.886;2023-03-14T02:07:22;98770.69;;;20.93;37.77
62710;BME280;48770;51.624;5.886;2023-03-14T02:09:50;98775.06;;;20.94;38.04
62710;BME280;48770;51.624;5.886;2023-03-14T02:12:17;98772.28;;;20.94;37.81
62710;BME280;48770;51.624;5.886;2023-03-14T02:14:43;98779.41;;;20.95;37.75
62710;BME280;48770;51.624;5.886;2023-03-14T02:17:15;98784.97;;;20.95;38.01
62710;BME280;48770;51.624;5.886;2023-03-14T02:22:14;98789.78;;;20.73;38.23
62710;BME280;48770;51.624;5.886;2023-03-14T02:24:43;98780.66;;;20.83;37.92
62710;BME280;48770;51.624;5.886;2023-03-14T02:27:12;98780.63;;;20.87;37.94
62710;BME280;48770;51.624;5.886;2023-03-14T02:29:47;98781.81;;;20.89;38.02
62710;BME280;48770;51.624;5.886;2023-03-14T02:32:16;98772.69;;;20.89;37.99
62710;BME280;48770;51.624;5.886;2023-03-14T02:34:43;98771.50;;;20.90;37.97
62710;BME280;48770;51.624;5.886;2023-03-14T02:37:11;98772.28;;;20.90;38.07
62710;BME280;48770;51.624;5.886;2023-03-14T02:39:41;98775.06;;;20.90;37.71
62710;BME280;48770;51.624;5.886;2023-03-14T02:42:08;98778.63;;;20.91;37.96
62710;BME280;48770;51.624;5.886;2023-03-14T02:44:33;98774.28;;;20.90;37.66
62710;BME280;48770;51.624;5.886;2023-03-14T02:47:01;98774.28;;;20.90;37.71
62710;BME280;48770;51.624;5.886;2023-03-14T02:49:27;98771.50;;;20.90;37.75
62710;BME280;48770;51.624;5.886;2023-03-14T02:51:54;98769.91;;;20.89;37.71
62710;BME280;48770;51.624;5.886;2023-03-14T02:54:20;98761.59;;;20.89;37.75
62710;BME280;48770;51.624;5.886;2023-03-14T02:56:45;98761.59;;;20.89;37.94
62710;BME280;48770;51.624;5.886;2023-03-14T02:59:11;98761.59;;;20.89;38.04
62710;BME280;48770;51.624;5.886;2023-03-14T03:01:36;98757.22;;;20.88;37.67
62710;BME280;48770;51.624;5.886;2023-03-14T03:04:01;98765.56;;;20.88;37.99
62710;BME280;48770;51.624;5.886;2023-03-14T03:06:27;98762.00;;;20.87;37.75
62710;BME280;48770;51.624;5.886;2023-03-14T03:08:52;98762.78;;;20.88;37.83
62710;BME280;48770;51.624;5.886;2023-03-14T03:11:17;98761.19;;;20.87;37.64
62710;BME280;48770;51.624;5.886;2023-03-14T03:13:43;98766.75;;;20.87;37.94
62710;BME280;48770;51.624;5.886;2023-03-14T03:16:08;98771.13;;;20.88;37.66
62710;BME280;48770;51.624;5.886;2023-03-14T03:18:34;98770.72;;;20.86;37.73
62710;BME280;48770;51.624;5.886;2023-03-14T03:21:00;98774.28;;;20.86;37.81
62710;BME280;48770;51.624;5.886;2023-03-14T03:23:26;98768.75;;;20.86;38.02
62710;BME280;48770;51.624;5.886;2023-03-14T03:25:51;98762.38;;;20.86;37.87
62710;BME280;48770;51.624;5.886;2023-03-14T03:28:18;98761.59;;;20.85;37.77
62710;BME280;48770;51.624;5.886;2023-03-14T03:30:44;98755.63;;;20.87;37.85
62710;BME280;48770;51.624;5.886;2023-03-14T03:33:09;98763.97;;;20.87;37.67
62710;BME280;48770;51.624;5.886;2023-03-14T03:35:42;98758.03;;;20.85;38.00
62710;BME280;48770;51.624;5.886;2023-03-14T03:38:07;98756.84;;;20.86;37.60
62710;BME280;48770;51.624;5.886;2023-03-14T03:40:33;98762.00;;;20.87;37.70
62710;BME280;48770;51.624;5.886;2023-03-14T03:42:58;98761.59;;;20.89;37.64
62710;BME280;48770;51.624;5.886;2023-03-14T03:45:24;98751.25;;;20.89;37.63
62710;BME280;48770;51.624;5.886;2023-03-14T03:47:49;98755.63;;;20.90;38.05
62710;BME280;48770;51.624;5.886;2023-03-14T03:50:14;98761.56;;;20.92;37.88
62710;BME280;48770;51.624;5.886;2023-03-14T03:52:40;98757.59;;;20.93;37.83
62710;BME280;48770;51.624;5.886;2023-03-14T03:55:05;98751.63;;;20.95;37.90
62710;BME280;48770;51.624;5.886;2023-03-14T03:57:31;98747.25;;;20.98;37.30
62710;BME280;48770;51.624;5.886;2023-03-14T03:59:56;98748.84;;;20.99;37.47
62710;BME280;48770;51.624;5.886;2023-03-14T04:02:21;98751.19;;;21.00;37.59
62710;BME280;48770;51.624;5.886;2023-03-14T04:04:47;98745.25;;;21.02;37.86
62710;BME280;48770;51.624;5.886;2023-03-14T04:07:12;98737.69;;;21.02;37.63
62710;BME280;48770;51.624;5.886;2023-03-14T04:09:39;98728.56;;;21.05;37.48
62710;BME280;48770;51.624;5.886;2023-03-14T04:12:04;98732.13;;;21.06;37.63
62710;BME280;48770;51.624;5.886;2023-03-14T04:14:29;98723.38;;;21.07;37.56
62710;BME280;48770;51.624;5.886;2023-03-14T04:16:55;98727.78;;;21.08;37.64
62710;BME280;48770;51.624;5.886;2023-03-14T04:19:20;98728.16;;;21.10;37.69
62710;BME280;48770;51.624;5.886;2023-03-14T04:21:45;98735.28;;;21.11;37.59
62710;BME280;48770;51.624;5.886;2023-03-14T04:24:12;98738.44;;;21.13;37.42
62710;BME280;48770;51.624;5.886;2023-03-14T04:26:38;98740.81;;;21.15;37.72
62710;BME280;48770;51.624;5.886;2023-03-14T04:29:03;98740.81;;;21.15;37.29
62710;BME280;48770;51.624;5.886;2023-03-14T04:31:28;98744.41;;;21.15;37.40
62710;BME280;48770;51.624;5.886;2023-03-14T04:33:54;98736.44;;;21.17;37.45
62710;BME280;48770;51.624;5.886;2023-03-14T04:36:19;98731.69;;;21.18;37.63
62710;BME280;48770;51.624;5.886;2023-03-14T04:38:44;98719.34;;;21.19;37.64
62710;BME280;48770;51.624;5.886;2023-03-14T04:41:09;98716.16;;;21.20;37.61
62710;BME280;48770;51.624;5.886;2023-03-14T04:43:35;98704.66;;;21.22;37.40
62710;BME280;48770;51.624;5.886;2023-03-14T04:46:00;98702.66;;;21.22;37.30
62710;BME280;48770;51.624;5.886;2023-03-14T04:48:26;98712.59;;;21.23;37.40
62710;BME280;48770;51.624;5.886;2023-03-14T04:50:52;98709.81;;;21.23;37.47
62710;BME280;48770;51.624;5.886;2023-03-14T04:53:18;98715.78;;;21.26;37.41
62710;BME280;48770;51.624;5.886;2023-03-14T04:55:52;98708.22;;;21.26;37.71
62710;BME280;48770;51.624;5.886;2023-03-14T04:58:18;98711.00;;;21.26;37.46
62710;BME280;48770;51.624;5.886;2023-03-14T05:00:44;98714.56;;;21.27;37.72
62710;BME280;48770;51.624;5.886;2023-03-14T05:03:09;98715.38;;;21.27;37.23
62710;BME280;48770;51.624;5.886;2023-03-14T05:05:34;98707.81;;;21.28;37.21
62710;BME280;48770;51.624;5.886;2023-03-14T05:08:00;98717.34;;;21.27;37.51
62710;BME280;48770;51.624;5.886;2023-03-14T05:10:25;98706.22;;;21.27;37.20
62710;BME280;48770;51.624;5.886;2023-03-14T05:12:51;98708.22;;;21.26;37.20
62710;BME280;48770;51.624;5.886;2023-03-14T05:15:16;98709.81;;;21.27;37.54
62710;BME280;48770;51.624;5.886;2023-03-14T05:17:41;98703.06;;;21.24;37.14
62710;BME280;48770;51.624;5.886;2023-03-14T05:20:07;98703.06;;;21.24;37.15
62710;BME280;48770;51.624;5.886;2023-03-14T05:22:34;98698.31;;;21.25;37.27
62710;BME280;48770;51.624;5.886;2023-03-14T05:24:59;98703.84;;;21.25;37.20
62710;BME280;48770;51.624;5.886;2023-03-14T05:27:25;98699.50;;;21.24;37.29
62710;BME280;48770;51.624;5.886;2023-03-14T05:29:50;98695.13;;;21.23;37.55
62710;BME280;48770;51.624;5.886;2023-03-14T05:32:15;98694.31;;;21.22;37.53
62710;BME280;48770;51.624;5.886;2023-03-14T05:34:41;98693.16;;;21.23;37.44
62710;BME280;48770;51.624;5.886;2023-03-14T05:37:06;98692.34;;;21.23;37.31
62710;BME280;48770;51.624;5.886;2023-03-14T05:39:32;98697.50;;;21.24;37.62
62710;BME280;48770;51.624;5.886;2023-03-14T05:41:57;98701.09;;;21.25;37.26
62710;BME280;48770;51.624;5.886;2023-03-14T05:44:22;98705.84;;;21.24;37.15
62710;BME280;48770;51.624;5.886;2023-03-14T05:46:48;98702.66;;;21.26;37.35
62710;BME280;48770;51.624;5.886;2023-03-14T05:49:13;98711.78;;;21.27;37.21
62710;BME280;48770;51.624;5.886;2023-03-14T05:51:38;98705.03;;;21.28;37.42
62710;BME280;48770;51.624;5.886;2023-03-14T05:54:04;98705.03;;;21.28;37.22
62710;BME280;48770;51.624;5.886;2023-03-14T05:56:29;98708.59;;;21.28;37.31
62710;BME280;48770;51.624;5.886;2023-03-14T05:58:54;98705.41;;;21.30;37.15
62710;BME280;48770;51.624;5.886;2023-03-14T06:01:20;98700.25;;;21.32;37.21
62710;BME280;48770;51.624;5.886;2023-03-14T06:03:45;98695.47;;;21.32;37.33
62710;BME280;48770;51.624;5.886;2023-03-14T06:06:10;98693.47;;;21.33;37.30
62710;BME280;48770;51.624;5.886;2023-03-14T06:08:35;98692.28;;;21.34;37.43
62710;BME280;48770;51.624;5.886;2023-03-14T06:11:02;98688.72;;;21.37;37.16
62710;BME280;48770;51.624;5.886;2023-03-14T06:13:28;98681.56;;;21.36;37.38
62710;BME280;48770;51.624;5.886;2023-03-14T06:15:53;98685.13;;;21.36;37.16
62710;BME280;48770;51.624;5.886;2023-03-14T06:18:19;98680.38;;;21.37;37.50
62710;BME280;48770;51.624;5.886;2023-03-14T06:20:44;98676.81;;;21.36;37.17
62710;BME280;48770;51.624;5.886;2023-03-14T06:23:10;98684.72;;;21.38;37.08
62710;BME280;48770;51.624;5.886;2023-03-14T06:25:36;98681.16;;;21.37;37.15
62710;BME280;48770;51.624;5.886;2023-03-14T06:28:01;98683.94;;;21.37;37.08
62710;BME280;48770;51.624;5.886;2023-03-14T06:30:27;98683.94;;;21.37;37.25
62710;BME280;48770;51.624;5.886;2023-03-14T06:32:52;98685.94;;;21.37;37.36
62710;BME280;48770;51.624;5.886;2023-03-14T06:35:17;98679.16;;;21.38;37.46
62710;BME280;48770;51.624;5.886;2023-03-14T06:37:43;98683.16;;;21.37;37.22
62710;BME280;48770;51.624;5.886;2023-03-14T06:40:12;98682.78;;;21.35;37.31
62710;BME280;48770;51.624;5.886;2023-03-14T06:42:42;98684.75;;;21.34;37.11
62710;BME280;48770;51.624;5.886;2023-03-14T06:45:08;98684.75;;;21.34;37.42
62710;BME280;48770;51.624;5.886;2023-03-14T06:47:34;98688.34;;;21.35;37.09
62710;BME280;48770;51.624;5.886;2023-03-14T06:49:59;98688.34;;;21.35;37.37
62710;BME280;48770;51.624;5.886;2023-03-14T06:52:25;98698.25;;;21.36;37.26
62710;BME280;48770;51.624;5.886;2023-03-14T06:54:50;98696.25;;;21.36;37.66
62710;BME280;48770;51.624;5.886;2023-03-14T06:57:15;98694.28;;;21.37;37.09
62710;BME280;48770;51.624;5.886;2023-03-14T06:59:41;98697.06;;;21.37;37.20
62710;BME280;48770;51.624;5.886;2023-03-14T07:02:10;98700.22;;;21.39;37.37
62710;BME280;48770;51.624;5.886;2023-03-14T07:04:35;98699.81;;;21.40;37.16
62710;BME280;48770;51.624;5.886;2023-03-14T07:07:01;98704.94;;;21.42;37.29
62710;BME280;48770;51.624;5.886;2023-03-14T07:09:26;98700.97;;;21.43;37.53
62710;BME280;48770;51.624;5.886;2023-03-14T07:11:51;98701.75;;;21.43;37.19
62710;BME280;48770;51.624;5.886;2023-03-14T07:14:16;98711.28;;;21.46;37.53
62710;BME280;48770;51.624;5.886;2023-03-14T07:16:42;98707.28;;;21.47;37.48
62710;BME280;48770;51.624;5.886;2023-03-14T07:19:07;98714.44;;;21.48;37.06
62710;BME280;48770;51.624;5.886;2023-03-14T07:21:32;98714.03;;;21.49;37.29
62710;BME280;48770;51.624;5.886;2023-03-14T07:23:59;98717.19;;;21.51;37.31
62710;BME280;48770;51.624;5.886;2023-03-14T07:26:25;98716.41;;;21.51;37.40
62710;BME280;48770;51.624;5.886;2023-03-14T07:28:50;98726.31;;;21.52;37.35
62710;BME280;48770;51.624;5.886;2023-03-14T07:31:15;98720.75;;;21.52;37.48
62710;BME280;48770;51.624;5.886;2023-03-14T07:33:41;98724.31;;;21.52;37.35
62710;BME280;48770;51.624;5.886;2023-03-14T07:36:06;98730.31;;;21.51;36.99
62710;BME280;48770;51.624;5.886;2023-03-14T07:38:32;98731.88;;;21.52;37.21
62710;BME280;48770;51.624;5.886;2023-03-14T07:40:59;98733.47;;;21.53;37.19
62710;BME280;48770;51.624;5.886;2023-03-14T07:43:25;98734.66;;;21.52;36.97
62710;BME280;48770;51.624;5.886;2023-03-14T07:45:50;98740.63;;;21.50;36.97
62710;BME280;48770;51.624;5.886;2023-03-14T07:48:15;98743.41;;;21.50;37.01
62710;BME280;48770;51.624;5.886;2023-03-14T07:50:40;98748.59;;;21.48;37.19
62710;BME280;48770;51.624;5.886;2023-03-14T07:53:06;98792.28;;;21.48;37.23
62710;BME280;48770;51.624;5.886;2023-03-14T07:55:31;98833.22;;;21.47;37.56
62710;BME280;48770;51.624;5.886;2023-03-14T07:57:56;98849.09;;;21.47;37.12
62710;BME280;48770;51.624;5.886;2023-03-14T08:00:22;98860.22;;;21.47;37.23
62710;BME280;48770;51.624;5.886;2023-03-14T08:02:47;98861.41;;;21.46;37.25
62710;BME280;48770;51.624;5.886;2023-03-14T08:05:12;98873.34;;;21.46;37.48
62710;BME280;48770;51.624;5.886;2023-03-14T08:07:38;98877.31;;;21.45;37.30
62710;BME280;48770;51.624;5.886;2023-03-14T08:10:04;98880.09;;;21.45;37.12
62710;BME280;48770;51.624;5.886;2023-03-14T08:12:29;98898.75;;;21.45;37.11
62710;BME280;48770;51.624;5.886;2023-03-14T08:14:54;98898.38;;;21.43;37.21
62710;BME280;48770;51.624;5.886;2023-03-14T08:17:20;98905.94;;;21.42;37.02
62710;BME280;48770;51.624;5.886;2023-03-14T08:19:45;98910.69;;;21.42;37.28
62710;BME280;48770;51.624;5.886;2023-03-14T08:22:10;98923.41;;;21.39;37.53
62710;BME280;48770;51.624;5.886;2023-03-14T08:24:36;98929.75;;;21.40;37.20
62710;BME280;48770;51.624;5.886;2023-03-14T08:27:01;98935.31;;;21.40;37.30
62710;BME280;48770;51.624;5.886;2023-03-14T08:29:26;98945.66;;;21.39;37.11
62710;BME280;48770;51.624;5.886;2023-03-14T08:31:52;98953.59;;;21.41;37.57
62710;BME280;48770;51.624;5.886;2023-03-14T08:34:17;98960.75;;;21.42;37.54
62710;BME280;48770;51.624;5.886;2023-03-14T08:36:42;98964.31;;;21.42;37.22
62710;BME280;48770;51.624;5.886;2023-03-14T08:39:08;98974.22;;;21.43;37.43
62710;BME280;48770;51.624;5.886;2023-03-14T08:41:34;98987.75;;;21.45;37.60
62710;BME280;48770;51.624;5.886;2023-03-14T08:44:06;98992.09;;;21.46;37.36
62710;BME280;48770;51.624;5.886;2023-03-14T08:46:31;99005.19;;;21.49;37.30
62710;BME280;48770;51.624;5.886;2023-03-14T08:48:56;99013.13;;;21.50;37.15
62710;BME280;48770;51.624;5.886;2023-03-14T08:51:22;99019.50;;;21.51;37.29
62710;BME280;48770;51.624;5.886;2023-03-14T08:53:47;99026.63;;;21.52;37.58
62710;BME280;48770;51.624;5.886;2023-03-14T08:56:12;99031.00;;;21.53;37.17
62710;BME280;48770;51.624;5.886;2023-03-14T08:58:38;99041.72;;;21.54;37.38
62710;BME280;48770;51.624;5.886;2023-03-14T09:01:05;99046.09;;;21.55;37.02
62710;BME280;48770;51.624;5.886;2023-03-14T09:03:30;99056.81;;;21.57;37.22
62710;BME280;48770;51.624;5.886;2023-03-14T09:05:56;99071.13;;;21.59;37.07
62710;BME280;48770;51.624;5.886;2023-03-14T09:08:26;99065.56;;;21.59;37.26
62710;BME280;48770;51.624;5.886;2023-03-14T09:10:51;99077.47;;;21.60;37.08
62710;BME280;48770;51.624;5.886;2023-03-14T09:13:16;99094.16;;;21.60;37.36
62710;BME280;48770;51.624;5.886;2023-03-14T09:15:41;99100.13;;;21.58;37.14
62710;BME280;48770;51.624;5.886;2023-03-14T09:18:07;99103.69;;;21.59;37.31
62710;BME280;48770;51.624;5.886;2023-03-14T09:20:32;99118.78;;;21.58;37.32
62710;BME280;48770;51.624;5.886;2023-03-14T09:22:58;99133.09;;;21.56;37.12
62710;BME280;48770;51.624;5.886;2023-03-14T09:25:23;99147.41;;;21.54;37.38
62710;BME280;48770;51.624;5.886;2023-03-14T09:27:48;99161.72;;;21.53;37.09
62710;BME280;48770;51.624;5.886;2023-03-14T09:30:14;99168.47;;;21.52;37.14
62710;BME280;48770;51.624;5.886;2023-03-14T09:32:39;99204.63;;;21.52;36.90
62710;BME280;48770;51.624;5.886;2023-03-14T09:35:05;99211.78;;;21.49;37.15
62710;BME280;48770;51.624;5.886;2023-03-14T09:37:30;99229.25;;;21.50;37.28
62710;BME280;48770;51.624;5.886;2023-03-14T09:39:55;99226.06;;;21.48;37.49
62710;BME280;48770;51.624;5.886;2023-03-14T09:42:23;99238.38;;;21.47;36.99
62710;BME280;48770;51.624;5.886;2023-03-14T09:44:59;99249.91;;;21.45;37.19
62710;BME280;48770;51.624;5.886;2023-03-14T09:47:27;99257.84;;;21.47;37.31
62710;BME280;48770;51.624;5.886;2023-03-14T09:49:53;99274.53;;;21.47;37.36
62710;BME280;48770;51.624;5.886;2023-03-14T09:52:23;99280.09;;;21.47;36.92
62710;BME280;48770;51.624;5.886;2023-03-14T09:54:52;99297.56;;;21.47;37.12
62710;BME280;48770;51.624;5.886;2023-03-14T09:57:22;99303.94;;;21.48;36.90
62710;BME280;48770;51.624;5.886;2023-03-14T09:59:49;99326.19;;;21.48;37.28
62710;BME280;48770;51.624;5.886;2023-03-14T10:04:46;99347.63;;;21.51;37.18
62710;BME280;48770;51.624;5.886;2023-03-14T10:07:18;99349.22;;;21.52;37.13
62710;BME280;48770;51.624;5.886;2023-03-14T10:09:49;99361.94;;;21.53;36.83
62710;BME280;48770;51.624;5.886;2023-03-14T10:12:16;99375.84;;;21.53;37.05
62710;BME280;48770;51.624;5.886;2023-03-14T10:14:51;99383.81;;;21.54;36.80
62710;BME280;48770;51.624;5.886;2023-03-14T10:17:18;99391.75;;;21.56;37.05
62710;BME280;48770;51.624;5.886;2023-03-14T10:19:53;99400.09;;;21.56;36.77
62710;BME280;48770;51.624;5.886;2023-03-14T10:22:19;99421.16;;;21.57;36.98
62710;BME280;48770;51.624;5.886;2023-03-14T10:24:49;99435.47;;;21.59;36.89
62710;BME280;48770;51.624;5.886;2023-03-14T10:27:26;99443.81;;;21.59;36.73
62710;BME280;48770;51.624;5.886;2023-03-14T10:29:58;99463.66;;;21.58;36.92
62710;BME280;48770;51.624;5.886;2023-03-14T10:32:34;99470.41;;;21.57;36.77
62710;BME280;48770;51.624;5.886;2023-03-14T10:38:12;99491.47;;;21.50;36.72
62710;BME280;48770;51.624;5.886;2023-03-14T10:40:39;99513.72;;;21.54;36.94
62710;BME280;48770;51.624;5.886;2023-03-14T10:43:11;99519.28;;;21.54;36.80
62710;BME280;48770;51.624;5.886;2023-03-14T10:45:40;99522.06;;;21.54;36.88
62710;BME280;48770;51.624;5.886;2023-03-14T10:50:48;99547.91;;;21.58;36.80
62710;BME280;48770;51.624;5.886;2023-03-14T10:53:17;99559.03;;;21.58;36.63
62710;BME280;48770;51.624;5.886;2023-03-14T10:55:44;99563.41;;;21.59;36.62
62710;BME280;48770;51.624;5.886;2023-03-14T10:58:21;99574.19;;;21.61;36.75
62710;BME280;48770;51.624;5.886;2023-03-14T11:00:51;99582.13;;;21.62;36.87
62710;BME280;48770;51.624;5.886;2023-03-14T11:03:19;99592.47;;;21.65;36.70
62710;BME280;48770;51.624;5.886;2023-03-14T11:06:06;99608.78;;;21.67;36.57
62710;BME280;48770;51.624;5.886;2023-03-14T11:08:42;99609.59;;;21.67;36.42
62710;BME280;48770;51.624;5.886;2023-03-14T11:11:18;99622.31;;;21.68;36.84
62710;BME280;48770;51.624;5.886;2023-03-14T11:14:15;99625.47;;;21.67;36.57
62710;BME280;48770;51.624;5.886;2023-03-14T11:16:48;99645.34;;;21.69;36.50
62710;BME280;48770;51.624;5.886;2023-03-14T11:22:12;99647.34;;;21.68;36.52
62710;BME280;48770;51.624;5.886;2023-03-14T11:33:07;99714.09;;;21.68;36.56
62710;BME280;48770;51.624;5.886;2023-03-14T11:38:28;99741.94;;;21.68;36.63
62710;BME280;48770;51.624;5.886;2023-03-14T11:40:57;99745.91;;;21.67;36.78
62710;BME280;48770;51.624;5.886;2023-03-14T11:43:39;99754.25;;;21.67;36.44
62710;BME280;48770;51.624;5.886;2023-03-14T11:46:20;99754.66;;;21.69;36.76
62710;BME280;48770;51.624;5.886;2023-03-14T11:51:39;99766.59;;;21.70;36.68
62710;BME280;48770;51.624;5.886;2023-03-14T11:57:18;99780.09;;;21.71;36.61
62710;BME280;48770;51.624;5.886;2023-03-14T11:59:52;99788.47;;;21.75;36.32
62710;BME280;48770;51.624;5.886;2023-03-14T12:02:24;99788.09;;;21.76;36.54
62710;BME280;48770;51.624;5.886;2023-03-14T12:10:50;99818.25;;;21.71;36.34
62710;BME280;48770;51.624;5.886;2023-03-14T12:13:17;99834.56;;;21.72;36.17
62710;BME280;48770;51.624;5.886;2023-03-14T12:15:54;99838.91;;;21.70;36.29
62710;BME280;48770;51.624;5.886;2023-03-14T12:18:27;99845.28;;;21.70;36.18
62710;BME280;48770;51.624;5.886;2023-03-14T12:20:55;99844.88;;;21.68;36.25
62710;BME280;48770;51.624;5.886;2023-03-14T12:23:22;99858.00;;;21.71;36.36
62710;BME280;48770;51.624;5.886;2023-03-14T12:28:43;99868.34;;;21.71;34.37
62710;BME280;48770;51.624;5.886;2023-03-14T12:34:28;99875.84;;;21.67;33.43
62710;BME280;48770;51.624;5.886;2023-03-14T12:45:54;99891.81;;;21.73;33.88
62710;BME280;48770;51.624;5.886;2023-03-14T12:50:40;99893.84;;;21.76;33.71
62710;BME280;48770;51.624;5.886;2023-03-14T12:53:20;99903.41;;;21.79;33.95
62710;BME280;48770;51.624;5.886;2023-03-14T12:59:05;99897.47;;;21.84;34.12
62710;BME280;48770;51.624;5.886;2023-03-14T13:01:36;99918.63;;;21.89;34.02
62710;BME280;48770;51.624;5.886;2023-03-14T13:04:10;99920.63;;;21.92;33.66
62710;BME280;48770;51.624;5.886;2023-03-14T13:07:03;99929.00;;;21.92;34.17
62710;BME280;48770;51.624;5.886;2023-03-14T13:09:35;99940.56;;;21.97;33.89
62710;BME280;48770;51.624;5.886;2023-03-14T13:12:10;99958.91;;;22.02;33.93
62710;BME280;48770;51.624;5.886;2023-03-14T13:14:40;99945.47;;;22.07;34.10
62710;BME280;48770;51.624;5.886;2023-03-14T13:17:10;99950.25;;;22.10;33.90
62710;BME280;48770;51.624;5.886;2023-03-14T13:19:37;99953.91;;;22.14;34.16
62710;BME280;48770;51.624;5.886;2023-03-14T13:22:05;99971.44;;;22.19;33.52
62710;BME280;48770;51.624;5.886;2023-03-14T13:24:33;99971.47;;;22.22;34.02
62710;BME280;48770;51.624;5.886;2023-03-14T13:26:59;99980.28;;;22.28;33.63
62710;BME280;48770;51.624;5.886;2023-03-14T13:29:27;99985.09;;;22.31;33.84
62710;BME280;48770;51.624;5.886;2023-03-14T13:31:55;99997.06;;;22.35;33.71
62710;BME280;48770;51.624;5.886;2023-03-14T13:34:29;99997.47;;;22.37;33.46
62710;BME280;48770;51.624;5.886;2023-03-14T13:36:54;100003.09;;;22.40;33.31
62710;BME280;48770;51.624;5.886;2023-03-14T13:39:22;100016.25;;;22.43;33.80
62710;BME280;48770;51.624;5.886;2023-03-14T13:41:51;100017.47;;;22.46;33.33
62710;BME280;48770;51.624;5.886;2023-03-14T13:44:23;100021.88;;;22.51;33.70
62710;BME280;48770;51.624;5.886;2023-03-14T13:46:49;100023.91;;;22.54;33.19
62710;BME280;48770;51.624;5.886;2023-03-14T13:49:23;100030.34;;;22.61;33.44
62710;BME280;48770;51.624;5.886;2023-03-14T13:51:50;100034.41;;;22.67;33.23
62710;BME280;48770;51.624;5.886;2023-03-14T13:54:18;100038.00;;;22.71;32.96
62710;BME280;48770;51.624;5.886;2023-03-14T13:56:44;100052.38;;;22.77;33.38
62710;BME280;48770;51.624;5.886;2023-03-14T13:59:33;100057.97;;;22.77;33.05
62710;BME280;48770;51.624;5.886;2023-03-14T14:02:04;100070.00;;;22.85;32.95
62710;BME280;48770;51.624;5.886;2023-03-14T14:04:36;100075.59;;;22.88;32.98
62710;BME280;48770;51.624;5.886;2023-03-14T14:07:07;100078.09;;;22.97;33.25